Lobdell, Mississippi
Current Conditions -  °F | °C
As of 12:55 AM on Monday 22 Dec 2014 (Local Time) from KRNV Reporting Station
Haze Haze  
Wind Chill: 42°   Ceiling: 300
Heat Index: 48°   Visibility: 4mi
Dew Point: 48°   Wind: 14mph
Humidity: 100%   Direction: 160°SSE
Pressure: 29.89"   Gusts: 21mph
Location:  33.7809°N, 90.9672°W
Report Text: KRNV 220655Z AUTO 16012G18KT 4SM BR OVC003 09/09 A2989 RMK AO2 T00880088
Loading
Personal Weather Stations






























Interactive Weather Map New forecast layout! Learn more

10-Day Weather Forecast

Advertisements
Track Severe Weather on mobile